Time;durP1;ratioP1;P1;durP2;ratioP2;P2;SDS_P1;SDS_P2;PMS_P1;PMS_P2;Temp;Humidity;BMP_temperature;BMP_pressure;BME280_temperature;BME280_humidity;BME280_pressure;Samples;Min_cycle;Max_cycle;Signal;HPM_P1;HPM_P2
2023/11/27 00:02:13;;;;;;;15.30;7.65;;;;;;;-144.57;100.00;62443.72;5010410;28;20529;-60
2023/11/27 00:04:38;;;;;;;15.15;6.07;;;;;;;-144.57;100.00;62443.72;5011503;28;20511;-59
2023/11/27 00:07:04;;;;;;;10.18;5.25;;;;;;;-144.57;100.00;62443.72;5011979;28;20128;-60
2023/11/27 00:09:31;;;;;;;9.75;5.60;;;;;;;-144.57;100.00;62443.72;5012429;28;20140;-62
2023/11/27 00:11:57;;;;;;;12.18;5.63;;;;;;;-144.57;100.00;62443.72;5011970;28;20045;-60
2023/11/27 00:14:22;;;;;;;12.20;6.28;;;;;;;-144.57;100.00;62443.72;5003013;28;20061;-57
2023/11/27 00:16:48;;;;;;;11.15;5.43;;;;;;;-144.57;100.00;62443.72;5010042;28;20056;-59
2023/11/27 00:19:14;;;;;;;15.30;6.72;;;;;;;-144.57;100.00;62443.72;5011149;28;20045;-60
2023/11/27 00:21:40;;;;;;;12.20;6.18;;;;;;;-144.57;100.00;62443.72;5011919;28;20423;-60
2023/11/27 00:24:06;;;;;;;12.35;6.38;;;;;;;-144.57;100.00;62443.72;5011618;28;20141;-59
2023/11/27 00:26:32;;;;;;;10.88;6.30;;;;;;;-144.57;100.00;62443.72;5011008;28;20053;-60
2023/11/27 00:28:58;;;;;;;14.38;7.05;;;;;;;-144.57;100.00;62443.72;5011734;28;20045;-59
2023/11/27 00:31:24;;;;;;;13.55;5.78;;;;;;;-144.57;100.00;62443.72;5011741;28;20052;-59
2023/11/27 00:33:49;;;;;;;14.70;6.97;;;;;;;-144.57;100.00;62443.72;5010547;28;20033;-60
2023/11/27 00:36:16;;;;;;;12.35;5.20;;;;;;;-144.57;100.00;62443.72;5012178;28;20078;-62
2023/11/27 00:38:41;;;;;;;14.82;7.32;;;;;;;-144.57;100.00;62443.72;5011374;28;20072;-59
2023/11/27 00:41:07;;;;;;;12.80;5.53;;;;;;;-144.57;100.00;62443.72;5010152;28;20069;-61
2023/11/27 00:43:34;;;;;;;11.50;6.20;;;;;;;-144.57;100.00;62443.72;5027164;28;20053;-59
2023/11/27 00:46:00;;;;;;;18.20;6.22;;;;;;;-144.57;100.00;62443.72;5010506;28;20407;-57
2023/11/27 00:48:26;;;;;;;15.52;7.60;;;;;;;-144.57;100.00;62443.72;4993512;28;20038;-59
2023/11/27 00:50:52;;;;;;;13.13;6.53;;;;;;;-144.57;100.00;62443.72;5011362;28;20045;-61
2023/11/27 00:53:18;;;;;;;12.48;6.38;;;;;;;-144.57;100.00;62443.72;5010315;28;20049;-59
2023/11/27 00:55:44;;;;;;;12.07;6.10;;;;;;;-144.57;100.00;62443.72;5009551;28;20077;-60
2023/11/27 00:58:10;;;;;;;10.32;6.10;;;;;;;-144.57;100.00;62443.72;5011669;28;20116;-58
2023/11/27 01:00:36;;;;;;;13.40;6.82;;;;;;;-144.57;100.00;62443.72;5010071;28;20097;-60
2023/11/27 01:03:03;;;;;;;11.40;5.90;;;;;;;-144.57;100.00;62443.72;5010888;28;20569;-59
2023/11/27 01:05:29;;;;;;;13.10;6.88;;;;;;;-144.57;100.00;62443.72;5026323;28;20504;-60
2023/11/27 01:07:55;;;;;;;8.60;5.47;;;;;;;-144.57;100.00;62443.72;5009883;28;20044;-59
2023/11/27 01:10:21;;;;;;;12.35;6.80;;;;;;;-144.57;100.00;62443.72;5026657;28;20053;-60
2023/11/27 01:12:49;;;;;;;12.93;6.45;;;;;;;-144.57;100.00;62443.72;5011116;28;20041;-58
2023/11/27 01:15:16;;;;;;;12.88;6.95;;;;;;;-144.57;100.00;62443.72;5009645;28;20387;-59
2023/11/27 01:17:42;;;;;;;10.73;4.80;;;;;;;-144.57;100.00;62443.72;5011709;28;20423;-59
2023/11/27 01:20:09;;;;;;;12.82;5.15;;;;;;;-144.57;100.00;62443.72;5025791;28;20049;-59
2023/11/27 01:22:36;;;;;;;16.85;5.78;;;;;;;-144.57;100.00;62443.72;5009858;28;20038;-59
2023/11/27 01:25:04;;;;;;;11.77;6.25;;;;;;;-144.57;100.00;62443.72;4993446;28;20513;-59
2023/11/27 01:27:31;;;;;;;9.35;4.65;;;;;;;-144.57;100.00;62443.72;5009612;28;20057;-59
2023/11/27 01:29:57;;;;;;;12.43;5.88;;;;;;;-144.57;100.00;62443.72;5010954;28;20057;-59
2023/11/27 01:32:24;;;;;;;9.40;4.78;;;;;;;-144.57;100.00;62443.72;5011083;28;20048;-60
2023/11/27 01:34:53;;;;;;;10.90;5.05;;;;;;;-144.57;100.00;62443.72;5026146;28;20050;-59
2023/11/27 01:37:19;;;;;;;11.35;5.75;;;;;;;-144.57;100.00;62443.72;5006176;28;20500;-59
2023/11/27 01:39:45;;;;;;;8.80;5.55;;;;;;;-144.57;100.00;62443.72;5002640;28;20044;-59
2023/11/27 01:42:11;;;;;;;10.55;4.93;;;;;;;-144.57;100.00;62443.72;5011413;28;20395;-59
2023/11/27 01:44:37;;;;;;;8.25;5.30;;;;;;;-144.57;100.00;62443.72;5009519;28;20042;-60
2023/11/27 01:47:04;;;;;;;9.65;5.25;;;;;;;-144.57;100.00;62443.72;5010502;28;20387;-58
2023/11/27 01:49:30;;;;;;;12.02;5.38;;;;;;;-144.57;100.00;62443.72;5010848;28;20038;-60
2023/11/27 01:51:57;;;;;;;11.05;4.68;;;;;;;-144.57;100.00;62443.72;5009700;28;21128;-59
2023/11/27 01:54:23;;;;;;;9.85;5.93;;;;;;;-144.57;100.00;62443.72;5010628;28;20037;-59
2023/11/27 01:56:51;;;;;;;12.75;6.03;;;;;;;-144.57;100.00;62443.72;5011234;28;20412;-59
2023/11/27 01:59:17;;;;;;;11.65;6.43;;;;;;;-144.57;100.00;62443.72;5009742;28;20559;-59
2023/11/27 02:01:43;;;;;;;13.50;6.57;;;;;;;-144.57;100.00;62443.72;5011312;28;20034;-58
2023/11/27 02:04:09;;;;;;;6.10;4.03;;;;;;;-144.57;100.00;62443.72;5013565;28;20176;-58
2023/11/27 02:06:35;;;;;;;8.48;4.90;;;;;;;-144.57;100.00;62443.72;5013466;28;20140;-60
2023/11/27 02:09:01;;;;;;;12.45;6.10;;;;;;;-144.57;100.00;62443.72;5014877;28;20046;-59
2023/11/27 02:11:26;;;;;;;9.10;4.63;;;;;;;-144.57;100.00;62443.72;5014729;28;20050;-60
2023/11/27 02:13:52;;;;;;;9.43;4.90;;;;;;;-144.57;100.00;62443.72;5029873;28;20038;-59
2023/11/27 02:16:19;;;;;;;14.18;6.15;;;;;;;-144.57;100.00;62443.72;5013187;28;20057;-60
2023/11/27 02:18:45;;;;;;;11.90;5.32;;;;;;;-144.57;100.00;62443.72;5013308;28;20038;-59
2023/11/27 02:21:11;;;;;;;7.43;4.00;;;;;;;-144.57;100.00;62443.72;5013006;28;20104;-59
2023/11/27 02:23:38;;;;;;;8.18;5.07;;;;;;;-144.57;100.00;62443.72;5029814;28;20046;-59
2023/11/27 02:26:04;;;;;;;11.45;5.75;;;;;;;-144.57;100.00;62443.72;5014111;28;20400;-59
2023/11/27 02:28:30;;;;;;;8.23;5.53;;;;;;;-144.57;100.00;62443.72;5014385;28;20064;-59
2023/11/27 02:30:56;;;;;;;8.63;4.97;;;;;;;-144.57;100.00;62443.72;5013219;28;20132;-59
2023/11/27 02:33:25;;;;;;;8.25;4.88;;;;;;;-144.57;100.00;62443.72;5012859;28;20049;-58
2023/11/27 02:35:51;;;;;;;8.25;4.63;;;;;;;-144.57;100.00;62443.72;5029260;28;20419;-60
2023/11/27 02:38:17;;;;;;;9.63;5.13;;;;;;;-144.57;100.00;62443.72;5029379;28;20045;-58
2023/11/27 02:40:43;;;;;;;11.40;5.05;;;;;;;-144.57;100.00;62443.72;5013035;28;20053;-60
2023/11/27 02:43:11;;;;;;;10.43;5.45;;;;;;;-144.57;100.00;62443.72;5012792;28;20499;-59
2023/11/27 02:45:37;;;;;;;9.57;5.22;;;;;;;-144.57;100.00;62443.72;5029175;28;20132;-60
2023/11/27 02:48:03;;;;;;;10.43;5.60;;;;;;;-144.57;100.00;62443.72;5029031;28;20133;-60
2023/11/27 02:50:29;;;;;;;9.40;4.82;;;;;;;-144.57;100.00;62443.72;5012513;28;20324;-60
2023/11/27 02:52:55;;;;;;;10.70;6.13;;;;;;;-144.57;100.00;62443.72;5029061;28;20514;-59
2023/11/27 02:55:22;;;;;;;15.27;5.25;;;;;;;-144.57;100.00;62443.72;5012477;28;20491;-59
2023/11/27 02:57:48;;;;;;;8.20;4.57;;;;;;;-144.57;100.00;62443.72;5013771;28;20045;-59
2023/11/27 03:00:15;;;;;;;7.22;4.60;;;;;;;-144.57;100.00;62443.72;5011710;28;20041;-60
2023/11/27 03:02:44;;;;;;;8.32;4.35;;;;;;;-144.57;100.00;62443.72;5011660;28;20045;-59
2023/11/27 03:05:10;;;;;;;10.20;5.10;;;;;;;-144.57;100.00;62443.72;5012070;28;20049;-59
2023/11/27 03:07:36;;;;;;;7.80;4.50;;;;;;;-144.57;100.00;62443.72;5012095;28;20597;-59
2023/11/27 03:10:03;;;;;;;12.27;5.63;;;;;;;-144.57;100.00;62443.72;5013174;28;20180;-60
2023/11/27 03:12:30;;;;;;;6.97;3.47;;;;;;;-144.57;100.00;62443.72;5012418;28;20087;-59
2023/11/27 03:14:56;;;;;;;10.20;5.88;;;;;;;-144.57;100.00;62443.72;5011212;28;20046;-60
2023/11/27 03:17:23;;;;;;;11.50;5.63;;;;;;;-144.57;100.00;62443.72;5013353;28;20045;-60
2023/11/27 03:19:52;;;;;;;9.73;5.28;;;;;;;-144.57;100.00;62443.72;5013482;28;20042;-59
2023/11/27 03:22:19;;;;;;;9.93;5.03;;;;;;;-144.57;100.00;62443.72;5011957;28;20037;-60
2023/11/27 03:24:45;;;;;;;5.55;3.53;;;;;;;-144.57;100.00;62443.72;5013084;28;20048;-60
2023/11/27 03:27:12;;;;;;;8.02;4.53;;;;;;;-144.57;100.00;62443.72;5012869;28;20061;-60
2023/11/27 03:29:37;;;;;;;5.30;3.60;;;;;;;-144.57;100.00;62443.72;5011791;28;20053;-59
2023/11/27 03:32:03;;;;;;;8.57;4.43;;;;;;;-144.57;100.00;62443.72;5011907;28;20127;-59
2023/11/27 03:34:30;;;;;;;8.48;4.40;;;;;;;-144.57;100.00;62443.72;5011885;28;20069;-61
2023/11/27 03:36:56;;;;;;;10.32;5.15;;;;;;;-144.57;100.00;62443.72;5011811;28;20386;-62
2023/11/27 03:39:22;;;;;;;6.28;3.95;;;;;;;-144.57;100.00;62443.72;5012801;28;20507;-59
2023/11/27 03:41:50;;;;;;;7.55;3.65;;;;;;;-144.57;100.00;62443.72;5011646;28;20041;-59
2023/11/27 03:44:16;;;;;;;8.65;4.82;;;;;;;-144.57;100.00;62443.72;5012899;28;20045;-60
2023/11/27 03:46:42;;;;;;;6.07;3.53;;;;;;;-144.57;100.00;62443.72;5012889;28;20128;-59
2023/11/27 03:49:07;;;;;;;8.82;5.05;;;;;;;-144.57;100.00;62443.72;5012818;28;20507;-59
2023/11/27 03:51:33;;;;;;;7.03;3.80;;;;;;;-144.57;100.00;62443.72;5012867;28;20076;-59
2023/11/27 03:53:59;;;;;;;6.20;3.35;;;;;;;-144.57;100.00;62443.72;5012524;28;20471;-59
2023/11/27 03:56:24;;;;;;;5.53;3.65;;;;;;;-144.57;100.00;62443.72;5011527;28;20042;-60
2023/11/27 03:58:50;;;;;;;8.77;4.50;;;;;;;-144.57;100.00;62443.72;5012881;28;20070;-59
2023/11/27 04:01:16;;;;;;;6.85;4.50;;;;;;;-144.57;100.00;62443.72;5011057;28;20050;-60
2023/11/27 04:03:42;;;;;;;12.25;5.75;;;;;;;-144.57;100.00;62443.72;5010965;28;20042;-59
2023/11/27 04:06:09;;;;;;;8.45;4.80;;;;;;;-144.57;100.00;62443.72;5011121;28;20049;-60
2023/11/27 04:08:39;;;;;;;8.57;4.88;;;;;;;-144.57;100.00;62443.72;5010714;28;20048;-58
2023/11/27 04:11:09;;;;;;;6.20;3.65;;;;;;;-144.57;100.00;62443.72;4994425;28;20041;-61
2023/11/27 04:13:37;;;;;;;9.48;5.35;;;;;;;-144.57;100.00;62443.72;5012007;28;20120;-60
2023/11/27 04:16:03;;;;;;;7.25;4.13;;;;;;;-144.57;100.00;62443.72;5010770;28;20345;-60
2023/11/27 04:18:29;;;;;;;8.27;5.22;;;;;;;-144.57;100.00;62443.72;5026951;28;20462;-60
2023/11/27 04:20:55;;;;;;;8.35;4.20;;;;;;;-144.57;100.00;62443.72;5009101;28;20129;-60
2023/11/27 04:23:20;;;;;;;7.85;4.82;;;;;;;-144.57;100.00;62443.72;5011854;28;20095;-59
2023/11/27 04:25:46;;;;;;;8.23;4.30;;;;;;;-144.57;100.00;62443.72;5010500;28;20072;-61
2023/11/27 04:28:12;;;;;;;6.00;3.33;;;;;;;-144.57;100.00;62443.72;5011943;28;20145;-59
2023/11/27 04:30:37;;;;;;;9.02;4.30;;;;;;;-144.57;100.00;62443.72;5027061;28;20045;-60
2023/11/27 04:33:03;;;;;;;8.27;4.43;;;;;;;-144.57;100.00;62443.72;5011385;28;20045;-60
2023/11/27 04:35:29;;;;;;;8.82;5.10;;;;;;;-144.57;100.00;62443.72;5010486;28;20046;-59
2023/11/27 04:37:55;;;;;;;6.60;3.30;;;;;;;-144.57;100.00;62443.72;5012080;28;20049;-60
2023/11/27 04:40:20;;;;;;;11.50;5.22;;;;;;;-144.57;100.00;62443.72;5010498;28;20370;-60
2023/11/27 04:42:46;;;;;;;7.13;4.60;;;;;;;-144.57;100.00;62443.72;5010689;28;20037;-61
2023/11/27 04:45:12;;;;;;;8.50;4.40;;;;;;;-144.57;100.00;62443.72;5011955;28;20058;-61
2023/11/27 04:47:38;;;;;;;5.60;3.83;;;;;;;-144.57;100.00;62443.72;4994117;28;20049;-60
2023/11/27 04:50:04;;;;;;;6.55;4.60;;;;;;;-144.57;100.00;62443.72;5011696;28;20050;-60
2023/11/27 04:52:31;;;;;;;6.80;3.67;;;;;;;-144.57;100.00;62443.72;5011771;28;20124;-59
2023/11/27 04:54:57;;;;;;;6.72;3.67;;;;;;;-144.57;100.00;62443.72;5026676;28;20138;-61
2023/11/27 04:57:24;;;;;;;8.60;4.32;;;;;;;-144.57;100.00;62443.72;5010245;28;20547;-62
2023/11/27 04:59:50;;;;;;;7.18;4.38;;;;;;;-144.57;100.00;62443.72;5026598;28;20050;-61
2023/11/27 05:02:17;;;;;;;6.63;4.20;;;;;;;-144.57;100.00;62443.72;5010185;28;20046;-59
2023/11/27 05:04:43;;;;;;;7.53;4.50;;;;;;;-144.57;100.00;62443.72;5026768;28;20127;-60
2023/11/27 05:07:10;;;;;;;6.70;4.25;;;;;;;-144.57;100.00;62443.72;5011592;28;20050;-59
2023/11/27 05:09:39;;;;;;;5.20;3.15;;;;;;;-144.57;100.00;62443.72;5011250;28;20045;-59
2023/11/27 05:12:05;;;;;;;7.13;4.18;;;;;;;-144.57;100.00;62443.72;5011396;28;20046;-60
2023/11/27 05:14:31;;;;;;;5.80;4.03;;;;;;;-144.57;100.00;62443.72;5011413;28;20046;-60
2023/11/27 05:16:57;;;;;;;7.90;4.53;;;;;;;-144.57;100.00;62443.72;5010368;28;20491;-60
2023/11/27 05:19:23;;;;;;;5.93;3.08;;;;;;;-144.57;100.00;62443.72;5011355;28;20085;-62
2023/11/27 05:21:49;;;;;;;5.80;3.67;;;;;;;-144.57;100.00;62443.72;5010492;28;20036;-59
2023/11/27 05:24:16;;;;;;;6.45;4.07;;;;;;;-144.57;100.00;62443.72;5009888;28;20089;-59
2023/11/27 05:26:43;;;;;;;7.05;4.20;;;;;;;-144.57;100.00;62443.72;5011092;28;20058;-61
2023/11/27 05:29:09;;;;;;;7.53;4.57;;;;;;;-144.57;100.00;62443.72;5009231;28;20096;-61
2023/11/27 05:31:35;;;;;;;6.85;3.75;;;;;;;-144.57;100.00;62443.72;5010653;28;20034;-58
2023/11/27 05:34:01;;;;;;;8.23;4.55;;;;;;;-144.57;100.00;62443.72;5009758;28;20088;-59
2023/11/27 05:36:26;;;;;;;6.00;3.88;;;;;;;-144.57;100.00;62443.72;5011352;28;20062;-60
2023/11/27 05:38:53;;;;;;;7.40;3.95;;;;;;;-144.57;100.00;62443.72;5014040;28;20049;-59
2023/11/27 05:41:22;;;;;;;7.13;4.22;;;;;;;-144.57;100.00;62443.72;5013057;28;20092;-59
2023/11/27 05:43:48;;;;;;;8.05;4.50;;;;;;;-144.57;100.00;62443.72;5013162;28;20042;-58
2023/11/27 05:46:14;;;;;;;8.55;4.30;;;;;;;-144.57;100.00;62443.72;5013577;28;20046;-58
2023/11/27 05:48:40;;;;;;;7.80;4.22;;;;;;;-144.57;100.00;62443.72;5014889;28;20038;-59
2023/11/27 05:51:06;;;;;;;6.75;4.50;;;;;;;-144.57;100.00;62443.72;5014928;28;20049;-61
2023/11/27 05:53:32;;;;;;;7.97;4.53;;;;;;;-144.57;100.00;62443.72;5013204;28;20053;-59
2023/11/27 05:55:58;;;;;;;5.85;3.63;;;;;;;-144.57;100.00;62443.72;5012655;28;20069;-58
2023/11/27 05:58:24;;;;;;;5.47;3.80;;;;;;;-144.57;100.00;62443.72;5014238;28;20042;-60
2023/11/27 06:00:50;;;;;;;6.15;3.83;;;;;;;-144.57;100.00;62443.72;5014264;28;20466;-60
2023/11/27 06:03:16;;;;;;;5.07;3.15;;;;;;;-144.57;100.00;62443.72;5014078;28;20056;-59
2023/11/27 06:05:42;;;;;;;3.92;2.83;;;;;;;-144.57;100.00;62443.72;5013327;28;20449;-60
2023/11/27 06:08:08;;;;;;;6.85;3.53;;;;;;;-144.57;100.00;62443.72;5013189;28;20073;-59
2023/11/27 06:10:34;;;;;;;5.03;3.20;;;;;;;-144.57;100.00;62443.72;5012912;28;20393;-61
2023/11/27 06:13:00;;;;;;;5.63;3.45;;;;;;;-144.57;100.00;62443.72;5012403;28;20048;-60
2023/11/27 06:15:26;;;;;;;7.07;4.00;;;;;;;-144.57;100.00;62443.72;5012899;28;20074;-61
2023/11/27 06:17:51;;;;;;;5.95;3.65;;;;;;;-144.57;100.00;62443.72;5014524;28;20555;-60
2023/11/27 06:20:17;;;;;;;4.43;2.67;;;;;;;-144.57;100.00;62443.72;5013424;28;20122;-60
2023/11/27 06:22:43;;;;;;;3.58;2.65;;;;;;;-144.57;100.00;62443.72;5029362;28;20049;-60
2023/11/27 06:25:09;;;;;;;5.82;3.60;;;;;;;-144.57;100.00;62443.72;5013905;28;20041;-60
2023/11/27 06:27:36;;;;;;;4.70;3.10;;;;;;;-144.57;100.00;62443.72;5028051;28;20400;-60
2023/11/27 06:30:02;;;;;;;3.45;2.83;;;;;;;-144.57;100.00;62443.72;5013251;28;20091;-61
2023/11/27 06:32:30;;;;;;;4.30;2.95;;;;;;;-144.57;100.00;62443.72;5011343;28;20121;-60
2023/11/27 06:34:56;;;;;;;3.53;2.80;;;;;;;-144.57;100.00;62443.72;5012324;28;20557;-61
2023/11/27 06:37:22;;;;;;;5.05;2.88;;;;;;;-144.57;100.00;62443.72;5013883;28;20104;-60
2023/11/27 06:39:48;;;;;;;4.13;2.75;;;;;;;-144.57;100.00;62443.72;5012523;28;20048;-60
2023/11/27 06:42:14;;;;;;;3.65;2.30;;;;;;;-144.57;100.00;62443.72;5012499;28;20042;-59
2023/11/27 06:44:40;;;;;;;4.47;2.70;;;;;;;-144.57;100.00;62443.72;5013575;28;20080;-59
2023/11/27 06:47:06;;;;;;;3.72;2.45;;;;;;;-144.57;100.00;62443.72;5012069;28;20080;-61
2023/11/27 06:49:32;;;;;;;5.05;2.88;;;;;;;-144.57;100.00;62443.72;5012182;28;20053;-61
2023/11/27 06:51:58;;;;;;;4.53;3.47;;;;;;;-144.57;100.00;62443.72;5013222;28;20081;-61
2023/11/27 06:54:24;;;;;;;4.55;2.75;;;;;;;-144.57;100.00;62443.72;5012949;28;20073;-58
2023/11/27 06:56:51;;;;;;;4.13;3.03;;;;;;;-144.57;100.00;62443.72;5027402;28;20069;-61
2023/11/27 06:59:21;;;;;;;7.35;4.15;;;;;;;-144.57;100.00;62443.72;5011393;28;20458;-60
2023/11/27 07:01:47;;;;;;;7.90;3.78;;;;;;;-144.57;100.00;62443.72;5012020;28;20077;-60
2023/11/27 07:04:12;;;;;;;7.28;4.25;;;;;;;-144.57;100.00;62443.72;5012332;28;20050;-60
2023/11/27 07:06:39;;;;;;;4.93;3.60;;;;;;;-144.57;100.00;62443.72;5012177;28;20053;-62
2023/11/27 07:09:05;;;;;;;3.50;2.72;;;;;;;-144.57;100.00;62443.72;5012152;28;20538;-61
2023/11/27 07:11:32;;;;;;;4.43;2.85;;;;;;;-144.57;100.00;62443.72;5028308;28;20049;-62
2023/11/27 07:13:59;;;;;;;3.78;2.50;;;;;;;-144.57;100.00;62443.72;5028320;28;20038;-61
2023/11/27 07:16:29;;;;;;;3.58;2.58;;;;;;;-144.57;100.00;62443.72;5010917;28;20041;-58
2023/11/27 07:18:57;;;;;;;4.73;3.13;;;;;;;-144.57;100.00;62443.72;5012993;28;20042;-60
2023/11/27 07:21:27;;;;;;;3.78;2.78;;;;;;;-144.57;100.00;62443.72;5012791;28;20058;-60
2023/11/27 07:23:54;;;;;;;2.83;2.33;;;;;;;-144.57;100.00;62443.72;5011799;28;20042;-61
2023/11/27 07:26:20;;;;;;;5.60;2.70;;;;;;;-144.57;100.00;62443.72;5006733;28;20042;-60
2023/11/27 07:28:46;;;;;;;4.47;2.92;;;;;;;-144.57;100.00;62443.72;4997779;28;20042;-61
2023/11/27 07:31:14;;;;;;;3.75;2.70;;;;;;;-144.57;100.00;62443.72;5012312;28;20053;-61
2023/11/27 07:33:40;;;;;;;4.30;2.90;;;;;;;-144.57;100.00;62443.72;5011394;28;20041;-60
2023/11/27 07:36:06;;;;;;;4.30;2.85;;;;;;;-144.57;100.00;62443.72;5011424;28;20079;-61
2023/11/27 07:38:33;;;;;;;5.13;2.72;;;;;;;-144.57;100.00;62443.72;5012895;28;20566;-59
2023/11/27 07:40:59;;;;;;;5.28;3.15;;;;;;;-144.57;100.00;62443.72;5012302;28;20050;-62
2023/11/27 07:43:25;;;;;;;4.40;3.13;;;;;;;-144.57;100.00;62443.72;4994327;28;20037;-62
2023/11/27 07:45:51;;;;;;;2.92;2.58;;;;;;;-144.57;100.00;62443.72;5011479;28;20137;-61
2023/11/27 07:48:18;;;;;;;5.72;3.38;;;;;;;-144.57;100.00;62443.72;5012535;28;20049;-61
2023/11/27 07:50:44;;;;;;;5.88;3.38;;;;;;;-144.57;100.00;62443.72;5011417;28;20140;-63
2023/11/27 07:53:11;;;;;;;5.30;3.33;;;;;;;-144.57;100.00;62443.72;5012034;28;20112;-61
2023/11/27 07:55:37;;;;;;;5.93;3.78;;;;;;;-144.57;100.00;62443.72;5010594;28;21310;-61
2023/11/27 07:58:03;;;;;;;9.75;4.30;;;;;;;-144.57;100.00;62443.72;5010447;28;20042;-61
2023/11/27 08:00:28;;;;;;;6.78;3.63;;;;;;;-144.57;100.00;62443.72;5008285;28;20045;-62
2023/11/27 08:02:55;;;;;;;7.47;4.60;;;;;;;-144.57;100.00;62443.72;5011513;28;20099;-61
2023/11/27 08:05:22;;;;;;;9.75;5.18;;;;;;;-144.57;100.00;62443.72;5010044;28;20512;-62
2023/11/27 08:07:49;;;;;;;10.20;4.32;;;;;;;-144.57;100.00;62443.72;5012139;28;20176;-61
2023/11/27 08:10:18;;;;;;;8.65;5.18;;;;;;;-144.57;100.00;62443.72;5026685;28;20061;-62
2023/11/27 08:12:44;;;;;;;5.75;4.03;;;;;;;-144.57;100.00;62443.72;4994138;28;20049;-61
2023/11/27 08:15:18;;;;;;;10.27;5.85;;;;;;;-144.57;100.00;62443.72;5012033;28;20046;-61
2023/11/27 08:17:49;;;;;;;8.07;5.05;;;;;;;-144.57;100.00;62443.72;5011474;28;20043;-60
2023/11/27 08:20:15;;;;;;;4.60;3.70;;;;;;;-144.57;100.00;62443.72;5010221;28;20073;-60
2023/11/27 08:22:42;;;;;;;9.57;4.22;;;;;;;-144.57;100.00;62443.72;5011334;28;20493;-59
2023/11/27 08:25:10;;;;;;;8.02;4.72;;;;;;;-144.57;100.00;62443.72;5010401;28;20056;-59
2023/11/27 08:27:42;;;;;;;5.35;3.83;;;;;;;-144.57;100.00;62443.72;5012052;28;20062;-60
2023/11/27 08:30:10;;;;;;;7.85;4.05;;;;;;;-144.57;100.00;62443.72;5010570;28;20042;-62
2023/11/27 08:32:36;;;;;;;5.80;3.75;;;;;;;-144.57;100.00;62443.72;5002574;28;20105;-60
2023/11/27 08:35:08;;;;;;;6.65;3.72;;;;;;;-144.57;100.00;62443.72;5005614;28;20143;-61
2023/11/27 08:37:35;;;;;;;6.38;4.43;;;;;;;-144.57;100.00;62443.72;5012092;28;20080;-59
2023/11/27 08:40:06;;;;;;;8.05;4.40;;;;;;;-144.57;100.00;62443.72;5009724;28;20462;-60
2023/11/27 08:42:34;;;;;;;6.40;4.60;;;;;;;-144.57;100.00;62443.72;5010799;28;20112;-61
2023/11/27 08:45:03;;;;;;;5.55;3.90;;;;;;;-144.57;100.00;62443.72;4994201;28;20200;-60
2023/11/27 08:47:30;;;;;;;11.90;5.28;;;;;;;-144.57;100.00;62443.72;4993715;28;20093;-59
2023/11/27 08:49:56;;;;;;;5.68;3.67;;;;;;;-144.57;100.00;62443.72;5009947;28;20542;-61
2023/11/27 08:52:22;;;;;;;8.38;4.75;;;;;;;-144.57;100.00;62443.72;5010296;28;20042;-60
2023/11/27 08:54:49;;;;;;;11.65;5.90;;;;;;;-144.57;100.00;62443.72;5011263;28;20042;-62
2023/11/27 08:57:14;;;;;;;8.27;4.75;;;;;;;-144.57;100.00;62443.72;5011507;28;20056;-61
2023/11/27 08:59:40;;;;;;;8.68;4.97;;;;;;;-144.57;100.00;62443.72;5010614;28;20507;-62
2023/11/27 09:02:06;;;;;;;11.55;6.05;;;;;;;-144.57;100.00;62443.72;5026512;28;20038;-59
2023/11/27 09:04:32;;;;;;;9.45;4.93;;;;;;;-144.57;100.00;62443.72;5010624;28;20053;-61
2023/11/27 09:06:58;;;;;;;9.40;5.38;;;;;;;-144.57;100.00;62443.72;5008190;28;20133;-59
2023/11/27 09:09:24;;;;;;;14.07;6.95;;;;;;;-144.57;100.00;62443.72;5009268;28;20072;-60
2023/11/27 09:11:50;;;;;;;18.02;7.95;;;;;;;-144.57;100.00;62443.72;5027124;28;20124;-62
2023/11/27 09:14:15;;;;;;;15.02;7.30;;;;;;;-144.57;100.00;62443.72;5003484;28;20046;-61
2023/11/27 10:14:35;;;;;;;14.57;8.30;;;;;;;-144.57;100.00;62443.72;4998853;28;20069;-60
2023/11/27 10:17:01;;;;;;;16.33;8.70;;;;;;;-144.57;100.00;62443.72;5021114;28;20482;-61
2023/11/27 10:19:27;;;;;;;21.15;8.80;;;;;;;-144.57;100.00;62443.72;5024356;28;20510;-62
2023/11/27 10:21:55;;;;;;;13.40;7.60;;;;;;;-144.57;100.00;62443.72;5033626;28;20056;-62
2023/11/27 10:24:21;;;;;;;15.70;8.52;;;;;;;-144.57;100.00;62443.72;4999506;28;20080;-60
2023/11/27 10:26:47;;;;;;;16.92;9.32;;;;;;;-144.57;100.00;62443.72;5014272;28;20065;-62
2023/11/27 10:29:33;;;;;;;14.80;8.85;;;;;;;-144.57;100.00;62443.72;5014225;28;20081;-61
2023/11/27 10:31:59;;;;;;;17.80;9.23;;;;;;;-144.57;100.00;62443.72;5023491;28;20498;-62
2023/11/27 10:34:32;;;;;;;13.70;8.75;;;;;;;-144.57;100.00;62443.72;5032178;28;20052;-62
2023/11/27 10:37:01;;;;;;;11.63;7.15;;;;;;;-144.57;100.00;62443.72;5028784;28;20212;-62
2023/11/27 10:39:34;;;;;;;12.50;6.55;;;;;;;-144.57;100.00;62443.72;5011820;28;20096;-59
2023/11/27 10:42:03;;;;;;;9.95;5.25;;;;;;;-144.57;100.00;62443.72;5012587;28;20499;-62
2023/11/27 10:44:34;;;;;;;7.72;5.28;;;;;;;-144.57;100.00;62443.72;5013889;28;20045;-62
2023/11/27 10:47:03;;;;;;;11.15;6.38;;;;;;;-144.57;100.00;62443.72;5012327;28;20100;-63
2023/11/27 10:49:30;;;;;;;18.00;6.63;;;;;;;-144.57;100.00;62443.72;5026272;28;20107;-63
2023/11/27 10:51:56;;;;;;;8.43;6.13;;;;;;;-144.57;100.00;62443.72;5045928;28;20461;-62
2023/11/27 10:54:24;;;;;;;8.77;5.53;;;;;;;-144.57;100.00;62443.72;5013837;28;20046;-62
2023/11/27 10:56:51;;;;;;;12.30;5.38;;;;;;;-144.57;100.00;62443.72;5012147;28;20126;-63
2023/11/27 10:59:19;;;;;;;11.15;6.15;;;;;;;-144.57;100.00;62443.72;4996091;28;20488;-63
2023/11/27 11:01:48;;;;;;;12.32;6.85;;;;;;;-144.57;100.00;62443.72;5012164;28;20046;-63
2023/11/27 11:04:44;;;;;;;10.45;6.70;;;;;;;-144.57;100.00;62443.72;5012102;28;20585;-63
2023/11/27 11:07:19;;;;;;;9.43;5.47;;;;;;;-144.57;100.00;62443.72;5028658;28;20084;-62
2023/11/27 11:09:55;;;;;;;15.05;7.20;;;;;;;-144.57;100.00;62443.72;5013743;28;20045;-61
2023/11/27 11:12:23;;;;;;;12.20;6.80;;;;;;;-144.57;100.00;62443.72;5013576;28;20128;-62
2023/11/27 11:14:52;;;;;;;14.05;7.72;;;;;;;-144.57;100.00;62443.72;5015508;28;20182;-63
2023/11/27 11:17:42;;;;;;;15.52;6.97;;;;;;;-144.57;100.00;62443.72;5014858;28;20026;-62
2023/11/27 11:20:30;;;;;;;10.20;6.20;;;;;;;-144.57;100.00;62443.72;5013317;28;20419;-62
2023/11/27 11:23:27;;;;;;;13.20;6.75;;;;;;;-144.57;100.00;62443.72;5012887;28;20052;-62
2023/11/27 11:26:23;;;;;;;11.50;6.93;;;;;;;-144.57;100.00;62443.72;5014053;28;20125;-62
2023/11/27 11:29:11;;;;;;;11.52;6.38;;;;;;;-144.57;100.00;62443.72;5011852;28;20068;-62
2023/11/27 11:31:47;;;;;;;11.02;7.28;;;;;;;-144.57;100.00;62443.72;5012506;28;20054;-62
2023/11/27 11:34:20;;;;;;;15.77;8.40;;;;;;;-144.57;100.00;62443.72;5012443;28;20081;-61
2023/11/27 11:36:52;;;;;;;14.98;8.55;;;;;;;-144.57;100.00;62443.72;5013339;28;20034;-62
2023/11/27 11:39:21;;;;;;;13.20;7.30;;;;;;;-144.57;100.00;62443.72;5012571;28;20042;-63
2023/11/27 11:41:47;;;;;;;13.55;7.40;;;;;;;-144.57;100.00;62443.72;5011791;28;20546;-62
2023/11/27 11:44:16;;;;;;;10.40;6.78;;;;;;;-144.57;100.00;62443.72;4995396;28;20053;-64
2023/11/27 11:46:43;;;;;;;15.23;8.03;;;;;;;-144.57;100.00;62443.72;5011285;28;20054;-62
2023/11/27 11:49:10;;;;;;;13.93;8.32;;;;;;;-144.57;100.00;62443.72;5012758;28;20046;-63
2023/11/27 11:51:56;;;;;;;18.50;9.10;;;;;;;-144.57;100.00;62443.72;5032658;28;20070;-63
2023/11/27 11:54:52;;;;;;;17.48;8.88;;;;;;;-144.57;100.00;62443.72;4994746;28;20054;-62
2023/11/27 11:57:22;;;;;;;15.65;8.38;;;;;;;-144.57;100.00;62443.72;4986271;28;20041;-62
2023/11/27 11:59:51;;;;;;;13.60;8.57;;;;;;;-144.57;100.00;62443.72;5012581;28;20411;-60
2023/11/27 12:02:22;;;;;;;16.33;9.07;;;;;;;-144.57;100.00;62443.72;5010744;28;20530;-60
2023/11/27 12:04:51;;;;;;;15.82;8.57;;;;;;;-144.57;100.00;62443.72;5011402;28;20045;-62
2023/11/27 12:07:18;;;;;;;16.88;9.40;;;;;;;-144.57;100.00;62443.72;5010802;28;20117;-60